sensor_id;sensor_type;location;lat;lon;timestamp;temperature;humidity
16140;DHT22;8175;49.326;12.690;2023-08-31T05:39:40;11.80;99.90
16140;DHT22;8175;49.326;12.690;2023-08-31T06:14:31;12.20;99.90
16140;DHT22;8175;49.326;12.690;2023-08-31T06:16:58;12.30;99.90
16140;DHT22;8175;49.326;12.690;2023-08-31T06:19:24;12.40;99.90
16140;DHT22;8175;49.326;12.690;2023-08-31T06:21:49;12.40;99.90
16140;DHT22;8175;49.326;12.690;2023-08-31T06:24:15;12.50;99.90
16140;DHT22;8175;49.326;12.690;2023-08-31T06:26:41;12.40;99.90
16140;DHT22;8175;49.326;12.690;2023-08-31T06:29:06;12.40;99.90
16140;DHT22;8175;49.326;12.690;2023-08-31T06:31:34;12.30;99.90
16140;DHT22;8175;49.326;12.690;2023-08-31T06:34:00;12.40;99.90
16140;DHT22;8175;49.326;12.690;2023-08-31T06:36:26;12.40;99.90
16140;DHT22;8175;49.326;12.690;2023-08-31T06:38:51;12.50;99.90
16140;DHT22;8175;49.326;12.690;2023-08-31T06:41:17;12.70;99.90
16140;DHT22;8175;49.326;12.690;2023-08-31T06:43:42;12.70;99.90
16140;DHT22;8175;49.326;12.690;2023-08-31T06:46:08;12.70;99.90
16140;DHT22;8175;49.326;12.690;2023-08-31T06:48:34;12.70;99.90
16140;DHT22;8175;49.326;12.690;2023-08-31T06:50:59;12.70;99.90
16140;DHT22;8175;49.326;12.690;2023-08-31T06:53:25;12.60;99.90
16140;DHT22;8175;49.326;12.690;2023-08-31T06:55:50;12.60;99.90
16140;DHT22;8175;49.326;12.690;2023-08-31T06:58:17;12.60;99.90
16140;DHT22;8175;49.326;12.690;2023-08-31T07:00:43;12.50;99.90
16140;DHT22;8175;49.326;12.690;2023-08-31T07:03:08;12.50;99.90
16140;DHT22;8175;49.326;12.690;2023-08-31T07:05:34;12.70;99.90
16140;DHT22;8175;49.326;12.690;2023-08-31T07:08:03;12.90;99.90
16140;DHT22;8175;49.326;12.690;2023-08-31T07:10:29;13.00;99.90
16140;DHT22;8175;49.326;12.690;2023-08-31T07:12:54;13.20;99.90
16140;DHT22;8175;49.326;12.690;2023-08-31T07:15:20;13.30;99.90
16140;DHT22;8175;49.326;12.690;2023-08-31T07:17:46;13.50;99.90
16140;DHT22;8175;49.326;12.690;2023-08-31T07:20:12;13.70;99.90
16140;DHT22;8175;49.326;12.690;2023-08-31T07:22:38;13.60;99.90
16140;DHT22;8175;49.326;12.690;2023-08-31T07:25:04;13.60;99.90
16140;DHT22;8175;49.326;12.690;2023-08-31T07:27:31;13.60;99.90
16140;DHT22;8175;49.326;12.690;2023-08-31T07:29:57;13.70;99.90
16140;DHT22;8175;49.326;12.690;2023-08-31T07:32:22;13.90;99.90
16140;DHT22;8175;49.326;12.690;2023-08-31T07:34:48;14.00;99.90
16140;DHT22;8175;49.326;12.690;2023-08-31T07:37:14;14.10;99.90
16140;DHT22;8175;49.326;12.690;2023-08-31T07:39:39;14.00;99.90
16140;DHT22;8175;49.326;12.690;2023-08-31T07:42:05;14.00;99.90
16140;DHT22;8175;49.326;12.690;2023-08-31T07:44:31;14.30;99.90
16140;DHT22;8175;49.326;12.690;2023-08-31T07:46:57;14.60;99.90
16140;DHT22;8175;49.326;12.690;2023-08-31T07:49:23;14.80;99.90
16140;DHT22;8175;49.326;12.690;2023-08-31T07:51:49;14.40;99.90
16140;DHT22;8175;49.326;12.690;2023-08-31T07:54:22;14.30;99.90
16140;DHT22;8175;49.326;12.690;2023-08-31T07:56:48;14.30;99.90
16140;DHT22;8175;49.326;12.690;2023-08-31T07:59:14;14.50;99.90
16140;DHT22;8175;49.326;12.690;2023-08-31T08:01:40;14.50;99.90
16140;DHT22;8175;49.326;12.690;2023-08-31T08:04:06;14.40;99.90
16140;DHT22;8175;49.326;12.690;2023-08-31T08:06:32;15.30;99.90
16140;DHT22;8175;49.326;12.690;2023-08-31T08:08:57;15.80;99.90
16140;DHT22;8175;49.326;12.690;2023-08-31T08:11:23;15.50;99.90
16140;DHT22;8175;49.326;12.690;2023-08-31T08:13:49;15.30;99.90
16140;DHT22;8175;49.326;12.690;2023-08-31T08:16:14;16.70;99.90
16140;DHT22;8175;49.326;12.690;2023-08-31T08:18:41;18.50;99.90
16140;DHT22;8175;49.326;12.690;2023-08-31T08:21:06;20.20;99.90
16140;DHT22;8175;49.326;12.690;2023-08-31T08:23:32;21.30;99.90
16140;DHT22;8175;49.326;12.690;2023-08-31T08:25:58;20.70;99.90
16140;DHT22;8175;49.326;12.690;2023-08-31T08:28:25;19.80;99.90
16140;DHT22;8175;49.326;12.690;2023-08-31T08:30:51;18.20;99.90
16140;DHT22;8175;49.326;12.690;2023-08-31T08:33:17;17.40;99.90
16140;DHT22;8175;49.326;12.690;2023-08-31T08:35:42;17.70;99.90
16140;DHT22;8175;49.326;12.690;2023-08-31T08:38:08;18.20;99.90
16140;DHT22;8175;49.326;12.690;2023-08-31T08:40:34;17.80;99.90
16140;DHT22;8175;49.326;12.690;2023-08-31T08:43:01;16.60;99.90
16140;DHT22;8175;49.326;12.690;2023-08-31T08:45:33;16.50;99.90
16140;DHT22;8175;49.326;12.690;2023-08-31T08:48:03;16.10;99.90
16140;DHT22;8175;49.326;12.690;2023-08-31T08:50:31;16.40;99.90
16140;DHT22;8175;49.326;12.690;2023-08-31T08:53:00;16.50;99.90
16140;DHT22;8175;49.326;12.690;2023-08-31T08:55:25;17.00;99.90
16140;DHT22;8175;49.326;12.690;2023-08-31T08:57:51;17.80;99.90
16140;DHT22;8175;49.326;12.690;2023-08-31T09:00:17;18.70;99.90
16140;DHT22;8175;49.326;12.690;2023-08-31T09:02:43;18.10;99.90
16140;DHT22;8175;49.326;12.690;2023-08-31T09:05:08;17.20;99.90
16140;DHT22;8175;49.326;12.690;2023-08-31T09:07:35;16.60;99.90
16140;DHT22;8175;49.326;12.690;2023-08-31T09:10:02;16.90;99.90
16140;DHT22;8175;49.326;12.690;2023-08-31T09:12:29;18.00;99.90
16140;DHT22;8175;49.326;12.690;2023-08-31T09:17:24;19.70;99.90
16140;DHT22;8175;49.326;12.690;2023-08-31T09:19:59;20.70;99.90
16140;DHT22;8175;49.326;12.690;2023-08-31T09:22:26;21.00;99.90
16140;DHT22;8175;49.326;12.690;2023-08-31T09:24:51;21.30;99.90
16140;DHT22;8175;49.326;12.690;2023-08-31T09:27:20;21.40;99.90
16140;DHT22;8175;49.326;12.690;2023-08-31T09:29:46;20.90;99.90
16140;DHT22;8175;49.326;12.690;2023-08-31T09:32:18;20.40;99.90
16140;DHT22;8175;49.326;12.690;2023-08-31T09:34:44;18.50;99.90
16140;DHT22;8175;49.326;12.690;2023-08-31T09:37:10;17.90;99.90
16140;DHT22;8175;49.326;12.690;2023-08-31T09:39:37;17.20;99.90
16140;DHT22;8175;49.326;12.690;2023-08-31T09:42:03;16.70;99.90
16140;DHT22;8175;49.326;12.690;2023-08-31T09:44:29;16.10;99.90
16140;DHT22;8175;49.326;12.690;2023-08-31T09:46:54;16.10;99.90
16140;DHT22;8175;49.326;12.690;2023-08-31T09:49:21;16.50;99.90
16140;DHT22;8175;49.326;12.690;2023-08-31T09:51:49;17.10;99.90
16140;DHT22;8175;49.326;12.690;2023-08-31T09:54:18;17.80;99.90
16140;DHT22;8175;49.326;12.690;2023-08-31T09:56:45;17.90;99.90
16140;DHT22;8175;49.326;12.690;2023-08-31T09:59:13;17.30;99.90
16140;DHT22;8175;49.326;12.690;2023-08-31T10:01:44;16.80;99.90
16140;DHT22;8175;49.326;12.690;2023-08-31T10:04:10;17.40;99.90
16140;DHT22;8175;49.326;12.690;2023-08-31T10:06:39;17.30;99.90
16140;DHT22;8175;49.326;12.690;2023-08-31T10:09:05;17.10;99.90
16140;DHT22;8175;49.326;12.690;2023-08-31T10:11:31;17.10;99.90
16140;DHT22;8175;49.326;12.690;2023-08-31T10:13:58;17.00;99.90
16140;DHT22;8175;49.326;12.690;2023-08-31T10:16:25;16.50;99.90
16140;DHT22;8175;49.326;12.690;2023-08-31T10:18:52;15.90;99.90
16140;DHT22;8175;49.326;12.690;2023-08-31T10:21:18;15.70;99.90
16140;DHT22;8175;49.326;12.690;2023-08-31T10:23:45;15.70;99.90
16140;DHT22;8175;49.326;12.690;2023-08-31T10:26:11;16.70;99.90
16140;DHT22;8175;49.326;12.690;2023-08-31T10:28:42;19.20;99.90
16140;DHT22;8175;49.326;12.690;2023-08-31T10:31:09;20.30;99.90
16140;DHT22;8175;49.326;12.690;2023-08-31T10:33:46;20.30;99.90
16140;DHT22;8175;49.326;12.690;2023-08-31T10:36:18;19.40;99.90
16140;DHT22;8175;49.326;12.690;2023-08-31T10:39:00;18.30;99.90
16140;DHT22;8175;49.326;12.690;2023-08-31T10:41:34;17.60;99.90
16140;DHT22;8175;49.326;12.690;2023-08-31T10:43:59;17.20;99.90
16140;DHT22;8175;49.326;12.690;2023-08-31T10:46:29;17.00;99.90
16140;DHT22;8175;49.326;12.690;2023-08-31T10:49:00;17.20;99.90
16140;DHT22;8175;49.326;12.690;2023-08-31T10:51:30;17.10;99.90
16140;DHT22;8175;49.326;12.690;2023-08-31T10:54:09;17.40;99.90
16140;DHT22;8175;49.326;12.690;2023-08-31T10:59:17;20.20;99.90
16140;DHT22;8175;49.326;12.690;2023-08-31T11:04:25;21.00;99.90
16140;DHT22;8175;49.326;12.690;2023-08-31T11:07:14;21.20;99.90
16140;DHT22;8175;49.326;12.690;2023-08-31T11:09:41;22.40;99.90
16140;DHT22;8175;49.326;12.690;2023-08-31T11:12:07;23.50;99.90
16140;DHT22;8175;49.326;12.690;2023-08-31T11:14:33;22.80;99.90
16140;DHT22;8175;49.326;12.690;2023-08-31T11:17:00;22.80;99.90
16140;DHT22;8175;49.326;12.690;2023-08-31T11:19:27;23.10;99.90
16140;DHT22;8175;49.326;12.690;2023-08-31T11:21:54;23.30;99.90
16140;DHT22;8175;49.326;12.690;2023-08-31T11:24:20;23.30;99.90
16140;DHT22;8175;49.326;12.690;2023-08-31T11:26:56;21.80;99.90
16140;DHT22;8175;49.326;12.690;2023-08-31T11:29:21;19.60;99.90
16140;DHT22;8175;49.326;12.690;2023-08-31T11:31:47;18.50;99.90
16140;DHT22;8175;49.326;12.690;2023-08-31T11:34:17;18.20;99.90
16140;DHT22;8175;49.326;12.690;2023-08-31T11:36:44;18.70;99.90
16140;DHT22;8175;49.326;12.690;2023-08-31T11:39:11;19.00;99.90
16140;DHT22;8175;49.326;12.690;2023-08-31T11:41:37;20.00;99.90
16140;DHT22;8175;49.326;12.690;2023-08-31T11:44:12;20.70;99.90
16140;DHT22;8175;49.326;12.690;2023-08-31T11:46:39;21.00;99.90
16140;DHT22;8175;49.326;12.690;2023-08-31T11:49:06;21.90;99.90
16140;DHT22;8175;49.326;12.690;2023-08-31T11:51:33;21.50;98.80
16140;DHT22;8175;49.326;12.690;2023-08-31T11:54:03;21.10;99.90
16140;DHT22;8175;49.326;12.690;2023-08-31T11:56:43;21.20;99.90
16140;DHT22;8175;49.326;12.690;2023-08-31T11:59:14;21.50;99.30
16140;DHT22;8175;49.326;12.690;2023-08-31T12:01:42;21.40;98.90
16140;DHT22;8175;49.326;12.690;2023-08-31T12:06:37;22.20;98.30
16140;DHT22;8175;49.326;12.690;2023-08-31T12:09:08;22.90;93.50
16140;DHT22;8175;49.326;12.690;2023-08-31T12:11:34;22.80;88.30
16140;DHT22;8175;49.326;12.690;2023-08-31T12:14:01;22.50;89.90
16140;DHT22;8175;49.326;12.690;2023-08-31T12:16:35;21.80;89.90
16140;DHT22;8175;49.326;12.690;2023-08-31T12:19:04;21.90;89.70
16140;DHT22;8175;49.326;12.690;2023-08-31T12:21:33;21.70;90.20
16140;DHT22;8175;49.326;12.690;2023-08-31T12:23:59;21.70;89.50
16140;DHT22;8175;49.326;12.690;2023-08-31T12:26:26;21.00;90.20
16140;DHT22;8175;49.326;12.690;2023-08-31T12:28:51;21.40;92.40
16140;DHT22;8175;49.326;12.690;2023-08-31T12:31:17;22.40;91.20
16140;DHT22;8175;49.326;12.690;2023-08-31T12:33:43;22.90;91.10
16140;DHT22;8175;49.326;12.690;2023-08-31T12:36:08;22.70;89.80
16140;DHT22;8175;49.326;12.690;2023-08-31T12:38:34;22.60;90.70
16140;DHT22;8175;49.326;12.690;2023-08-31T12:41:00;23.10;87.80
16140;DHT22;8175;49.326;12.690;2023-08-31T12:43:27;22.00;83.50
16140;DHT22;8175;49.326;12.690;2023-08-31T12:45:54;20.30;88.20
16140;DHT22;8175;49.326;12.690;2023-08-31T12:48:20;19.10;90.40
16140;DHT22;8175;49.326;12.690;2023-08-31T12:50:46;18.70;91.90
16140;DHT22;8175;49.326;12.690;2023-08-31T12:53:16;18.50;92.00
16140;DHT22;8175;49.326;12.690;2023-08-31T12:55:42;18.10;93.90
16140;DHT22;8175;49.326;12.690;2023-08-31T12:58:08;18.50;93.70
16140;DHT22;8175;49.326;12.690;2023-08-31T13:00:33;19.00;94.50
16140;DHT22;8175;49.326;12.690;2023-08-31T13:02:59;18.90;93.70
16140;DHT22;8175;49.326;12.690;2023-08-31T13:05:26;18.70;94.40
16140;DHT22;8175;49.326;12.690;2023-08-31T13:07:54;19.00;95.20
16140;DHT22;8175;49.326;12.690;2023-08-31T13:10:20;19.20;94.80
16140;DHT22;8175;49.326;12.690;2023-08-31T13:12:45;19.00;94.00
16140;DHT22;8175;49.326;12.690;2023-08-31T13:15:11;19.50;94.10
16140;DHT22;8175;49.326;12.690;2023-08-31T13:17:38;19.90;94.50
16140;DHT22;8175;49.326;12.690;2023-08-31T13:20:04;21.30;94.10
16140;DHT22;8175;49.326;12.690;2023-08-31T13:22:30;22.70;92.40
16140;DHT22;8175;49.326;12.690;2023-08-31T13:24:56;23.60;86.80
16140;DHT22;8175;49.326;12.690;2023-08-31T13:27:22;22.80;83.30
16140;DHT22;8175;49.326;12.690;2023-08-31T13:29:47;21.50;85.20
16140;DHT22;8175;49.326;12.690;2023-08-31T13:32:13;20.80;90.80
16140;DHT22;8175;49.326;12.690;2023-08-31T13:34:39;20.10;90.60
16140;DHT22;8175;49.326;12.690;2023-08-31T13:37:05;19.50;90.60
16140;DHT22;8175;49.326;12.690;2023-08-31T13:39:33;19.00;92.10
16140;DHT22;8175;49.326;12.690;2023-08-31T13:41:59;18.90;93.00
16140;DHT22;8175;49.326;12.690;2023-08-31T13:44:27;18.90;94.20
16140;DHT22;8175;49.326;12.690;2023-08-31T13:46:52;18.90;95.10
16140;DHT22;8175;49.326;12.690;2023-08-31T13:49:18;18.60;93.60
16140;DHT22;8175;49.326;12.690;2023-08-31T13:51:44;18.30;94.40
16140;DHT22;8175;49.326;12.690;2023-08-31T13:54:11;18.30;96.40
16140;DHT22;8175;49.326;12.690;2023-08-31T13:56:36;18.20;95.10
16140;DHT22;8175;49.326;12.690;2023-08-31T13:59:02;18.10;97.20
16140;DHT22;8175;49.326;12.690;2023-08-31T14:01:28;18.30;97.30
16140;DHT22;8175;49.326;12.690;2023-08-31T14:03:55;19.80;99.60
16140;DHT22;8175;49.326;12.690;2023-08-31T14:06:21;21.20;94.40
16140;DHT22;8175;49.326;12.690;2023-08-31T14:08:46;21.50;93.80
16140;DHT22;8175;49.326;12.690;2023-08-31T14:11:12;22.10;93.50
16140;DHT22;8175;49.326;12.690;2023-08-31T14:13:38;21.60;92.00
16140;DHT22;8175;49.326;12.690;2023-08-31T14:16:04;21.20;90.70
16140;DHT22;8175;49.326;12.690;2023-08-31T14:18:29;20.50;93.30
16140;DHT22;8175;49.326;12.690;2023-08-31T14:20:57;20.90;94.20
16140;DHT22;8175;49.326;12.690;2023-08-31T14:23:24;22.10;95.20
16140;DHT22;8175;49.326;12.690;2023-08-31T14:25:50;22.80;91.60
16140;DHT22;8175;49.326;12.690;2023-08-31T14:28:16;23.20;89.50
16140;DHT22;8175;49.326;12.690;2023-08-31T14:30:41;22.40;92.30
16140;DHT22;8175;49.326;12.690;2023-08-31T14:33:07;21.70;88.80
16140;DHT22;8175;49.326;12.690;2023-08-31T14:35:38;21.00;88.70
16140;DHT22;8175;49.326;12.690;2023-08-31T14:38:05;20.70;91.30
16140;DHT22;8175;49.326;12.690;2023-08-31T14:40:30;20.40;90.90
16140;DHT22;8175;49.326;12.690;2023-08-31T14:42:58;20.90;92.30
16140;DHT22;8175;49.326;12.690;2023-08-31T14:45:23;21.00;90.70
16140;DHT22;8175;49.326;12.690;2023-08-31T14:47:49;21.00;90.40
16140;DHT22;8175;49.326;12.690;2023-08-31T14:50:15;20.90;90.50
16140;DHT22;8175;49.326;12.690;2023-08-31T14:52:40;21.00;90.90
16140;DHT22;8175;49.326;12.690;2023-08-31T14:55:06;21.50;94.00
16140;DHT22;8175;49.326;12.690;2023-08-31T14:57:32;21.60;90.20
16140;DHT22;8175;49.326;12.690;2023-08-31T14:59:57;21.60;89.20
16140;DHT22;8175;49.326;12.690;2023-08-31T15:02:24;21.00;90.90
16140;DHT22;8175;49.326;12.690;2023-08-31T15:04:50;20.70;90.50
16140;DHT22;8175;49.326;12.690;2023-08-31T15:07:17;20.50;89.40
16140;DHT22;8175;49.326;12.690;2023-08-31T15:09:43;20.20;90.90
16140;DHT22;8175;49.326;12.690;2023-08-31T15:12:09;20.20;90.40
16140;DHT22;8175;49.326;12.690;2023-08-31T15:14:34;20.30;91.80
16140;DHT22;8175;49.326;12.690;2023-08-31T15:17:00;20.80;91.10
16140;DHT22;8175;49.326;12.690;2023-08-31T15:19:26;21.00;90.00
16140;DHT22;8175;49.326;12.690;2023-08-31T15:21:51;21.20;90.70
16140;DHT22;8175;49.326;12.690;2023-08-31T15:24:17;21.30;90.60
16140;DHT22;8175;49.326;12.690;2023-08-31T15:26:42;20.80;90.80
16140;DHT22;8175;49.326;12.690;2023-08-31T15:29:09;20.50;90.70
16140;DHT22;8175;49.326;12.690;2023-08-31T15:31:35;20.20;90.20
16140;DHT22;8175;49.326;12.690;2023-08-31T15:34:00;19.70;91.00
16140;DHT22;8175;49.326;12.690;2023-08-31T15:36:26;19.50;94.20
16140;DHT22;8175;49.326;12.690;2023-08-31T15:38:52;19.40;91.90
16140;DHT22;8175;49.326;12.690;2023-08-31T15:41:18;19.10;91.90
16140;DHT22;8175;49.326;12.690;2023-08-31T15:43:44;19.00;93.40
16140;DHT22;8175;49.326;12.690;2023-08-31T15:46:09;18.80;93.10
16140;DHT22;8175;49.326;12.690;2023-08-31T15:48:35;18.70;93.20
16140;DHT22;8175;49.326;12.690;2023-08-31T15:51:01;18.90;93.30
16140;DHT22;8175;49.326;12.690;2023-08-31T15:53:27;19.00;92.60
16140;DHT22;8175;49.326;12.690;2023-08-31T15:55:54;18.70;93.60
16140;DHT22;8175;49.326;12.690;2023-08-31T15:58:19;18.50;93.40
16140;DHT22;8175;49.326;12.690;2023-08-31T16:00:46;18.30;92.60
16140;DHT22;8175;49.326;12.690;2023-08-31T16:03:12;18.10;94.40
16140;DHT22;8175;49.326;12.690;2023-08-31T16:05:38;18.10;94.50
16140;DHT22;8175;49.326;12.690;2023-08-31T16:08:04;18.30;94.80
16140;DHT22;8175;49.326;12.690;2023-08-31T16:10:30;18.40;96.30
16140;DHT22;8175;49.326;12.690;2023-08-31T16:12:57;18.50;95.80
16140;DHT22;8175;49.326;12.690;2023-08-31T16:15:27;18.40;94.20
16140;DHT22;8175;49.326;12.690;2023-08-31T16:17:53;18.30;94.80
16140;DHT22;8175;49.326;12.690;2023-08-31T16:20:19;18.20;95.40
16140;DHT22;8175;49.326;12.690;2023-08-31T16:22:45;18.20;95.60
16140;DHT22;8175;49.326;12.690;2023-08-31T16:25:11;18.10;96.40
16140;DHT22;8175;49.326;12.690;2023-08-31T16:27:40;18.10;96.50
16140;DHT22;8175;49.326;12.690;2023-08-31T16:30:06;18.10;96.00
16140;DHT22;8175;49.326;12.690;2023-08-31T16:32:32;18.00;96.70
16140;DHT22;8175;49.326;12.690;2023-08-31T16:34:58;17.90;97.10
16140;DHT22;8175;49.326;12.690;2023-08-31T16:37:23;17.80;99.00
16140;DHT22;8175;49.326;12.690;2023-08-31T16:39:52;17.40;97.50
16140;DHT22;8175;49.326;12.690;2023-08-31T16:42:18;17.20;99.10
16140;DHT22;8175;49.326;12.690;2023-08-31T16:44:43;17.10;99.40
16140;DHT22;8175;49.326;12.690;2023-08-31T16:47:09;16.90;99.90
16140;DHT22;8175;49.326;12.690;2023-08-31T16:49:36;16.60;99.70
16140;DHT22;8175;49.326;12.690;2023-08-31T16:52:02;16.50;99.90
16140;DHT22;8175;49.326;12.690;2023-08-31T16:54:29;16.30;99.90
16140;DHT22;8175;49.326;12.690;2023-08-31T16:56:55;16.10;99.90
16140;DHT22;8175;49.326;12.690;2023-08-31T16:59:21;16.10;99.90
16140;DHT22;8175;49.326;12.690;2023-08-31T17:01:47;15.90;99.90
16140;DHT22;8175;49.326;12.690;2023-08-31T17:04:13;15.70;99.90
16140;DHT22;8175;49.326;12.690;2023-08-31T17:06:38;15.60;99.90
16140;DHT22;8175;49.326;12.690;2023-08-31T17:09:04;15.50;99.90
16140;DHT22;8175;49.326;12.690;2023-08-31T17:11:33;15.40;99.90
16140;DHT22;8175;49.326;12.690;2023-08-31T17:14:00;15.30;99.90
16140;DHT22;8175;49.326;12.690;2023-08-31T17:16:26;15.10;99.90
16140;DHT22;8175;49.326;12.690;2023-08-31T17:18:52;15.00;99.90
16140;DHT22;8175;49.326;12.690;2023-08-31T17:21:18;14.90;99.90
16140;DHT22;8175;49.326;12.690;2023-08-31T17:23:44;14.80;99.90
16140;DHT22;8175;49.326;12.690;2023-08-31T17:26:25;14.70;99.90
16140;DHT22;8175;49.326;12.690;2023-08-31T17:28:51;14.60;99.90
16140;DHT22;8175;49.326;12.690;2023-08-31T17:31:17;14.50;99.90
16140;DHT22;8175;49.326;12.690;2023-08-31T17:33:46;14.40;99.90
16140;DHT22;8175;49.326;12.690;2023-08-31T17:36:12;14.30;99.90
16140;DHT22;8175;49.326;12.690;2023-08-31T17:38:39;14.10;99.90
16140;DHT22;8175;49.326;12.690;2023-08-31T17:41:07;14.10;99.90
16140;DHT22;8175;49.326;12.690;2023-08-31T17:43:33;14.20;99.90
16140;DHT22;8175;49.326;12.690;2023-08-31T17:45:59;14.20;99.90
16140;DHT22;8175;49.326;12.690;2023-08-31T17:48:24;14.10;99.90
16140;DHT22;8175;49.326;12.690;2023-08-31T17:50:50;14.00;99.90
16140;DHT22;8175;49.326;12.690;2023-08-31T17:53:16;14.00;99.90
16140;DHT22;8175;49.326;12.690;2023-08-31T17:55:42;13.90;99.90
16140;DHT22;8175;49.326;12.690;2023-08-31T17:58:08;13.80;99.90
16140;DHT22;8175;49.326;12.690;2023-08-31T18:00:34;13.70;99.90
16140;DHT22;8175;49.326;12.690;2023-08-31T18:02:59;13.60;99.90
16140;DHT22;8175;49.326;12.690;2023-08-31T18:05:25;13.50;99.90
16140;DHT22;8175;49.326;12.690;2023-08-31T18:07:51;13.50;99.90
16140;DHT22;8175;49.326;12.690;2023-08-31T18:10:17;13.40;99.90
16140;DHT22;8175;49.326;12.690;2023-08-31T18:12:47;13.30;99.90
16140;DHT22;8175;49.326;12.690;2023-08-31T18:15:12;13.20;99.90
16140;DHT22;8175;49.326;12.690;2023-08-31T18:17:38;13.20;99.90
16140;DHT22;8175;49.326;12.690;2023-08-31T18:20:04;13.20;99.90
16140;DHT22;8175;49.326;12.690;2023-08-31T18:22:30;13.10;99.90
16140;DHT22;8175;49.326;12.690;2023-08-31T18:24:57;13.00;99.90
16140;DHT22;8175;49.326;12.690;2023-08-31T18:27:22;12.90;99.90
16140;DHT22;8175;49.326;12.690;2023-08-31T18:29:48;12.80;99.90
16140;DHT22;8175;49.326;12.690;2023-08-31T18:32:13;12.70;99.90
16140;DHT22;8175;49.326;12.690;2023-08-31T18:34:39;12.60;99.90
16140;DHT22;8175;49.326;12.690;2023-08-31T18:37:05;12.50;99.90
16140;DHT22;8175;49.326;12.690;2023-08-31T18:39:31;12.40;99.90
16140;DHT22;8175;49.326;12.690;2023-08-31T18:41:56;12.50;99.90
16140;DHT22;8175;49.326;12.690;2023-08-31T18:44:22;12.50;99.90
16140;DHT22;8175;49.326;12.690;2023-08-31T18:46:50;12.60;99.90
16140;DHT22;8175;49.326;12.690;2023-08-31T18:49:16;12.60;99.90
16140;DHT22;8175;49.326;12.690;2023-08-31T18:51:42;12.60;99.90
16140;DHT22;8175;49.326;12.690;2023-08-31T18:54:09;12.60;99.90
16140;DHT22;8175;49.326;12.690;2023-08-31T18:56:35;12.60;99.90
16140;DHT22;8175;49.326;12.690;2023-08-31T18:59:01;12.60;99.90
16140;DHT22;8175;49.326;12.690;2023-08-31T19:01:27;12.50;99.90
16140;DHT22;8175;49.326;12.690;2023-08-31T19:03:53;12.40;99.90
16140;DHT22;8175;49.326;12.690;2023-08-31T19:06:24;12.40;99.90
16140;DHT22;8175;49.326;12.690;2023-08-31T19:08:52;12.50;99.90
16140;DHT22;8175;49.326;12.690;2023-08-31T19:11:18;12.60;99.90
16140;DHT22;8175;49.326;12.690;2023-08-31T19:13:44;12.70;99.90
16140;DHT22;8175;49.326;12.690;2023-08-31T19:16:15;12.80;99.90
16140;DHT22;8175;49.326;12.690;2023-08-31T19:18:40;12.90;99.90
16140;DHT22;8175;49.326;12.690;2023-08-31T19:21:06;13.00;99.90
16140;DHT22;8175;49.326;12.690;2023-08-31T19:23:32;13.20;99.90
16140;DHT22;8175;49.326;12.690;2023-08-31T19:26:05;13.30;99.90
16140;DHT22;8175;49.326;12.690;2023-08-31T19:28:38;13.30;99.90
16140;DHT22;8175;49.326;12.690;2023-08-31T19:31:05;13.50;99.90
16140;DHT22;8175;49.326;12.690;2023-08-31T19:33:31;13.50;99.90
16140;DHT22;8175;49.326;12.690;2023-08-31T19:35:57;13.50;99.90
16140;DHT22;8175;49.326;12.690;2023-08-31T19:38:23;13.40;99.90
16140;DHT22;8175;49.326;12.690;2023-08-31T19:40:49;13.50;99.90
16140;DHT22;8175;49.326;12.690;2023-08-31T19:43:18;13.40;99.90
16140;DHT22;8175;49.326;12.690;2023-08-31T19:45:44;13.50;99.90
16140;DHT22;8175;49.326;12.690;2023-08-31T19:48:10;13.60;99.90
16140;DHT22;8175;49.326;12.690;2023-08-31T19:50:37;13.70;99.90
16140;DHT22;8175;49.326;12.690;2023-08-31T19:53:05;13.80;99.90
16140;DHT22;8175;49.326;12.690;2023-08-31T19:55:31;13.80;99.90
16140;DHT22;8175;49.326;12.690;2023-08-31T19:57:56;13.80;99.90
16140;DHT22;8175;49.326;12.690;2023-08-31T20:00:24;13.80;99.90
16140;DHT22;8175;49.326;12.690;2023-08-31T20:02:51;13.90;99.90
16140;DHT22;8175;49.326;12.690;2023-08-31T20:05:17;13.80;99.90
16140;DHT22;8175;49.326;12.690;2023-08-31T20:07:44;13.80;99.90
16140;DHT22;8175;49.326;12.690;2023-08-31T20:10:12;13.80;99.90
16140;DHT22;8175;49.326;12.690;2023-08-31T20:12:38;13.80;99.90
16140;DHT22;8175;49.326;12.690;2023-08-31T20:15:04;13.80;99.90
16140;DHT22;8175;49.326;12.690;2023-08-31T20:17:30;13.80;99.90
16140;DHT22;8175;49.326;12.690;2023-08-31T20:19:55;13.90;99.90
16140;DHT22;8175;49.326;12.690;2023-08-31T20:22:22;13.80;99.90
16140;DHT22;8175;49.326;12.690;2023-08-31T20:24:48;13.80;99.90
16140;DHT22;8175;49.326;12.690;2023-08-31T20:27:13;13.80;99.90
16140;DHT22;8175;49.326;12.690;2023-08-31T20:29:40;13.80;99.90
16140;DHT22;8175;49.326;12.690;2023-08-31T20:32:05;13.80;99.90
16140;DHT22;8175;49.326;12.690;2023-08-31T20:34:31;13.90;99.90
16140;DHT22;8175;49.326;12.690;2023-08-31T20:36:57;13.90;99.90
16140;DHT22;8175;49.326;12.690;2023-08-31T20:39:25;14.00;99.90
16140;DHT22;8175;49.326;12.690;2023-08-31T20:41:53;14.10;99.90
16140;DHT22;8175;49.326;12.690;2023-08-31T20:44:19;14.10;99.90
16140;DHT22;8175;49.326;12.690;2023-08-31T20:46:44;14.10;99.90
16140;DHT22;8175;49.326;12.690;2023-08-31T20:49:12;14.00;99.90
16140;DHT22;8175;49.326;12.690;2023-08-31T20:51:40;14.00;99.90
16140;DHT22;8175;49.326;12.690;2023-08-31T20:54:06;14.00;99.90
16140;DHT22;8175;49.326;12.690;2023-08-31T20:56:33;14.00;99.90
16140;DHT22;8175;49.326;12.690;2023-08-31T20:58:59;14.00;99.90
16140;DHT22;8175;49.326;12.690;2023-08-31T21:01:24;13.90;99.90
16140;DHT22;8175;49.326;12.690;2023-08-31T21:03:58;13.80;99.90
16140;DHT22;8175;49.326;12.690;2023-08-31T21:06:25;13.80;99.90
16140;DHT22;8175;49.326;12.690;2023-08-31T21:08:51;13.80;99.90
16140;DHT22;8175;49.326;12.690;2023-08-31T21:11:22;13.80;99.90
16140;DHT22;8175;49.326;12.690;2023-08-31T21:13:49;13.80;99.90
16140;DHT22;8175;49.326;12.690;2023-08-31T21:16:15;13.90;99.90
16140;DHT22;8175;49.326;12.690;2023-08-31T21:18:41;13.80;99.90
16140;DHT22;8175;49.326;12.690;2023-08-31T21:21:07;13.80;99.90
16140;DHT22;8175;49.326;12.690;2023-08-31T21:23:33;13.80;99.90
16140;DHT22;8175;49.326;12.690;2023-08-31T21:26:01;13.80;99.90
16140;DHT22;8175;49.326;12.690;2023-08-31T21:28:27;13.90;99.90
16140;DHT22;8175;49.326;12.690;2023-08-31T21:30:52;14.00;99.90
